Station Historical Data
Daily Summary for April 17, 2017 Units:  English    Metric   Both
« Previous Day
Next Day »
Daily Weekly Monthly Yearly Custom
  High: Low: Average:
Temperature: 80.1 °F 60.1 °F 68.4 °F
Dew Point: 62.9 °F 54.2 °F 58.5 °F
Humidity: 89% 48% 72%
Wind Speed: 1.0mph 0.0mph 0mph
Wind Gust: 5.0mph - -
Wind- - West
Pressure: 30.16 in 30.04 in -
Precipitation: 0.00 in    
Historical Graphs
 
 
Tabular Data for April 17, 2017
Time Temperature Dew Point Pressure Wind Wind Speed Wind Gust Humidity Rainfall Rate (Hourly) Conditions
00:00 64.8 °F 56.3 °F 30.15 in Calm     74% 0.00 in SCT
00:15 64.4 °F 56.3 °F 30.15 in Calm     75% 0.00 in SCT
00:30 63.9 °F 56.2 °F 30.15 in Calm     76% 0.00 in SCT
00:45 63.4 °F 56.1 °F 30.15 in Calm     77% 0.00 in SCT
01:00 63.1 °F 56.1 °F 30.14 in Calm     78% 0.00 in SCT
01:15 62.9 °F 56.3 °F 30.15 in Calm     79% 0.00 in SCT
01:30 62.6 °F 56.0 °F 30.14 in Calm     79% 0.00 in SCT
01:45 62.3 °F 55.7 °F 30.14 in Calm     79% 0.00 in SCT
02:00 62.0 °F 55.8 °F 30.14 in Calm     80% 0.00 in SCT
02:15 61.7 °F 55.8 °F 30.13 in Calm     81% 0.00 in SCT
02:30 61.3 °F 55.7 °F 30.13 in Calm     82% 0.00 in SCT
02:45 60.9 °F 55.7 °F 30.12 in Calm     83% 0.00 in SCT
03:00 60.8 °F 55.3 °F 30.12 in Calm     82% 0.00 in SCT
03:15 60.8 °F 55.3 °F 30.11 in Calm     82% 0.00 in SCT
03:30 60.9 °F 55.4 °F 30.11 in Calm     82% 0.00 in SCT
03:45 60.1 °F 54.2 °F 30.11 in Calm     81% 0.00 in SCT
04:00 60.1 °F 54.2 °F 30.11 in Calm     81% 0.00 in SCT
04:15 60.1 °F 54.2 °F 30.11 in Calm     81% 0.00 in SCT
04:30 60.1 °F 54.2 °F 30.11 in Calm     81% 0.00 in SCT
04:45 60.1 °F 54.2 °F 30.11 in Calm     81% 0.00 in SCT
05:00 60.1 °F 54.2 °F 30.11 in Calm     81% 0.00 in SCT
05:15 60.1 °F 54.2 °F 30.11 in Calm     81% 0.00 in SCT
05:30 60.1 °F 54.2 °F 30.11 in Calm     81% 0.00 in SCT
05:45 60.1 °F 54.2 °F 30.12 in Calm     81% 0.00 in SCT
06:00 60.1 °F 54.2 °F 30.12 in Calm     81% 0.00 in SCT
06:15 60.1 °F 54.2 °F 30.12 in Calm     81% 0.00 in SCT
06:30 60.1 °F 54.2 °F 30.12 in Calm     81% 0.00 in SCT
06:45 60.1 °F 54.2 °F 30.12 in Calm     81% 0.00 in SCT
07:00 60.1 °F 54.2 °F 30.12 in Calm     81% 0.00 in SCT
07:15 60.1 °F 54.2 °F 30.13 in Calm     81% 0.00 in SCT
07:30 60.1 °F 54.2 °F 30.13 in Calm     81% 0.00 in SCT
07:45 60.1 °F 54.2 °F 30.14 in Calm     81% 0.00 in SCT
08:00 62.5 °F 57.2 °F 30.14 in Calm     83% 0.00 in SCT
08:15 63.9 °F 57.3 °F 30.15 in Calm     79% 0.00 in SCT
08:30 65.0 °F 58.0 °F 30.15 in Calm     78% 0.00 in SCT
08:45 65.8 °F 58.0 °F 30.15 in Calm     76% 0.00 in SCT
09:00 66.4 °F 58.6 °F 30.16 in Calm     76% 0.00 in SCT
09:15 66.6 °F 58.8 °F 30.16 in Calm     76% 0.00 in SCT
09:30 69.3 °F 59.4 °F 30.16 in Calm     71% 0.00 in SCT
09:45 70.5 °F 58.6 °F 30.15 in Calm   2.0 mph 66% 0.00 in SCT
10:00 71.4 °F 58.1 °F 30.15 in Calm   2.0 mph 63% 0.00 in SCT
10:15 71.9 °F 59.1 °F 30.15 in Calm   1.0 mph 64% 0.00 in SCT
10:30 72.9 °F 59.6 °F 30.15 in Calm   1.0 mph 63% 0.00 in SCT
10:45 73.2 °F 58.5 °F 30.16 in Calm   1.0 mph 60% 0.00 in SCT
11:00 73.0 °F 59.2 °F 30.16 in Calm   2.0 mph 62% 0.00 in SCT
11:15 72.6 °F 58.4 °F 30.15 in Calm   2.0 mph 61% 0.00 in SCT
11:30 72.2 °F 59.3 °F 30.15 in Calm   2.0 mph 64% 0.00 in SCT
11:45 72.0 °F 59.2 °F 30.15 in Calm   2.0 mph 64% 0.00 in SCT
12:00 72.0 °F 59.6 °F 30.15 in Calm   1.0 mph 65% 0.00 in SCT
12:15 72.9 °F 59.5 °F 30.14 in Calm   2.0 mph 63% 0.00 in SCT
12:30 74.3 °F 60.0 °F 30.14 in Calm   1.0 mph 61% 0.00 in SCT
12:45 76.3 °F 59.5 °F 30.13 in Calm   3.0 mph 56% 0.00 in SCT
13:00 78.6 °F 60.0 °F 30.12 in West 1.0 mph 5.0 mph 53% 0.00 in SCT
13:15 78.0 °F 60.0 °F 30.12 in Calm   3.0 mph 54% 0.00 in SCT
13:30 77.4 °F 60.5 °F 30.11 in Calm   5.0 mph 56% 0.00 in SCT
13:45 77.6 °F 60.2 °F 30.11 in Calm   5.0 mph 55% 0.00 in SCT
14:00 77.9 °F 58.9 °F 30.10 in Calm   2.0 mph 52% 0.00 in SCT
14:15 78.2 °F 59.7 °F 30.10 in West 1.0 mph 5.0 mph 53% 0.00 in SCT
14:30 78.1 °F 58.5 °F 30.09 in Calm   5.0 mph 51% 0.00 in SCT
14:45 79.3 °F 58.4 °F 30.09 in Calm   2.0 mph 49% 0.00 in SCT
15:00 79.5 °F 58.1 °F 30.09 in Calm   2.0 mph 48% 0.00 in SCT
15:15 80.1 °F 58.6 °F 30.08 in West 1.0 mph 5.0 mph 48% 0.00 in SCT
15:30 80.1 °F 60.9 °F 30.08 in Calm   5.0 mph 52% 0.00 in SCT
15:45 77.7 °F 61.3 °F 30.07 in Calm   3.0 mph 57% 0.00 in SCT
16:00 76.7 °F 60.9 °F 30.07 in Calm   2.0 mph 58% 0.00 in SCT
16:15 77.4 °F 61.4 °F 30.06 in NW 1.0 mph 3.0 mph 58% 0.00 in SCT
16:30 77.4 °F 61.0 °F 30.06 in Calm   2.0 mph 57% 0.00 in SCT
16:45 78.0 °F 61.5 °F 30.05 in Calm   3.0 mph 57% 0.00 in SCT
17:00 78.4 °F 60.9 °F 30.05 in Calm   2.0 mph 55% 0.00 in SCT
17:15 77.9 °F 61.4 °F 30.05 in Calm   5.0 mph 57% 0.00 in SCT
17:30 76.7 °F 60.8 °F 30.05 in Calm   3.0 mph 58% 0.00 in SCT
17:45 75.2 °F 59.9 °F 30.05 in Calm   1.0 mph 59% 0.00 in SCT
18:00 73.7 °F 61.7 °F 30.06 in Calm   1.0 mph 66% 0.00 in SCT
18:15 72.0 °F 62.5 °F 30.05 in Calm   1.0 mph 72% 0.00 in SCT
18:30 71.9 °F 62.0 °F 30.05 in Calm     71% 0.00 in SCT
18:45 72.3 °F 62.4 °F 30.04 in Calm     71% 0.00 in SCT
19:00 72.6 °F 62.3 °F 30.04 in Calm   1.0 mph 70% 0.00 in SCT
19:15 72.6 °F 62.3 °F 30.04 in Calm   1.0 mph 70% 0.00 in SCT
19:30 72.4 °F 62.9 °F 30.05 in Calm     72% 0.00 in SCT
19:45 71.8 °F 62.7 °F 30.05 in Calm     73% 0.00 in SCT
20:15 70.1 °F 62.2 °F 30.05 in Calm     76% 0.00 in SCT
20:30 69.3 °F 62.1 °F 30.06 in Calm     78% 0.00 in SCT
20:45 68.4 °F 61.6 °F 30.06 in Calm     79% 0.00 in SCT
21:00 67.8 °F 61.8 °F 30.06 in Calm     81% 0.00 in SCT
21:15 67.2 °F 61.5 °F 30.07 in Calm     82% 0.00 in SCT
21:30 66.6 °F 61.3 °F 30.07 in Calm     83% 0.00 in SCT
21:45 66.1 °F 60.8 °F 30.08 in Calm     83% 0.00 in SCT
22:00 65.8 °F 61.2 °F 30.08 in Calm     85% 0.00 in SCT
22:15 65.3 °F 60.7 °F 30.09 in Calm     85% 0.00 in SCT
22:30 64.9 °F 60.6 °F 30.08 in Calm     86% 0.00 in SCT
22:45 64.6 °F 60.3 °F 30.09 in Calm     86% 0.00 in SCT
23:00 64.4 °F 60.4 °F 30.10 in Calm     87% 0.00 in SCT
23:15 64.5 °F 61.2 °F 30.10 in Calm     89% 0.00 in SCT
23:30 65.0 °F 61.4 °F 30.10 in Calm     88% 0.00 in SCT
23:45 65.1 °F 61.1 °F 30.11 in Calm     87% 0.00 in SCT
Piedmont Bend
Compliments of Weather Underground - 4 mb